Torrington, Wyoming
Current Conditions -  °F | °C
As of 4:53 AM on Saturday 22 Nov 2014 (Local Time) from KTOR Reporting Station
Clear Clear  
Wind Chill: 18°   Ceiling: Unl
Heat Index: 27°   Visibility: 10mi
Dew Point: 19°   Wind: 9mph
Humidity: 72%   Direction: 130°SE
Pressure: 29.73"   Gusts: NA
Location:  42.06°N, 104.18°W
Report Text: KTOR 221153Z AUTO 13008KT 10SM CLR M03/M07 A2973 RMK AO2 SLP080 T10281072 10006 21067 58023
Loading
Personal Weather Stations






























Interactive Weather Map New forecast layout! Learn more

10-Day Weather Forecast

Advertisements
Track Severe Weather on mobile